Time;durP1;ratioP1;P1;durP2;ratioP2;P2;SDS_P1;SDS_P2;PMS_P1;PMS_P2;Temp;Humidity;BMP_temperature;BMP_pressure;BME280_temperature;BME280_humidity;BME280_pressure;Samples;Min_cycle;Max_cycle;Signal;HPM_P1;HPM_P2
2022/07/15 00:02:12;;;;;;;10.35;3.22;;;;;;;13.44;82.46;102208.63;5062112;28;20385;-71
2022/07/15 00:04:38;;;;;;;7.70;3.25;;;;;;;13.37;82.44;102201.72;5071217;28;20377;-71
2022/07/15 00:07:04;;;;;;;7.97;3.42;;;;;;;13.34;82.74;102208.75;5073987;28;20483;-71
2022/07/15 00:12:13;;;;;;;9.27;3.45;;;;;;;13.24;83.44;102215.00;5072121;28;20040;-71
2022/07/15 00:14:40;;;;;;;11.80;3.75;;;;;;;13.26;83.50;102212.34;5053379;28;20029;-71
2022/07/15 00:17:06;;;;;;;4.07;3.10;;;;;;;13.21;83.70;102219.34;5057113;28;20115;-71
2022/07/15 00:19:35;;;;;;;7.78;3.42;;;;;;;13.12;83.56;102209.88;5060649;28;20055;-71
2022/07/15 00:22:01;;;;;;;7.50;3.70;;;;;;;13.09;83.83;102216.03;5071310;28;20028;-71
2022/07/15 00:24:27;;;;;;;9.98;3.22;;;;;;;13.03;83.97;102208.22;5074291;28;20029;-71
2022/07/15 00:26:52;;;;;;;7.13;3.50;;;;;;;12.97;84.11;102212.69;5073891;28;20484;-71
2022/07/15 00:29:18;;;;;;;9.18;3.10;;;;;;;12.95;84.28;102206.59;5073911;28;20063;-71
2022/07/15 00:31:43;;;;;;;8.45;3.58;;;;;;;12.96;84.38;102211.81;5058059;28;20050;-71
2022/07/15 00:34:08;;;;;;;9.13;3.13;;;;;;;12.93;84.43;102217.09;5074551;28;20021;-71
2022/07/15 00:36:34;;;;;;;7.10;2.90;;;;;;;12.94;84.62;102210.09;5073142;28;20036;-71
2022/07/15 00:38:59;;;;;;;6.97;2.90;;;;;;;12.84;84.45;102209.31;5073961;28;20017;-71
2022/07/15 00:41:24;;;;;;;10.48;3.25;;;;;;;12.79;84.97;102212.00;5072981;28;20365;-71
2022/07/15 00:43:49;;;;;;;7.43;3.22;;;;;;;12.83;84.79;102208.47;5073008;28;20024;-71
2022/07/15 00:46:17;;;;;;;9.57;3.10;;;;;;;12.73;85.33;102200.75;5074331;28;20481;-71
2022/07/15 00:48:43;;;;;;;11.75;3.50;;;;;;;12.78;85.32;102206.78;5067152;28;20476;-71
2022/07/15 00:51:08;;;;;;;13.82;3.72;;;;;;;12.68;85.39;102205.16;5065671;28;20039;-71
2022/07/15 00:53:37;;;;;;;9.85;3.70;;;;;;;12.62;85.65;102200.84;5072701;28;20052;-71
2022/07/15 00:56:04;;;;;;;8.23;3.22;;;;;;;12.65;86.29;102206.03;5073736;28;20404;-71
2022/07/15 00:58:32;;;;;;;8.65;2.92;;;;;;;12.56;85.95;102201.78;5071275;28;20024;-71
2022/07/15 01:00:58;;;;;;;8.30;3.30;;;;;;;12.53;86.10;102200.94;5072439;28;20056;-71
2022/07/15 01:03:26;;;;;;;8.05;3.10;;;;;;;12.52;86.50;102214.88;5073979;28;20042;-71
2022/07/15 01:05:52;;;;;;;5.57;3.47;;;;;;;12.44;86.42;102208.88;5071925;28;20031;-71
2022/07/15 01:08:18;;;;;;;7.97;2.80;;;;;;;12.45;86.92;102208.00;5068821;28;20112;-71
2022/07/15 01:10:43;;;;;;;7.35;3.30;;;;;;;12.40;87.08;102210.66;5067723;28;20111;-71
2022/07/15 01:13:09;;;;;;;8.73;3.08;;;;;;;12.33;87.32;102195.91;5072969;28;20013;-71
2022/07/15 01:15:34;;;;;;;10.35;3.42;;;;;;;12.37;87.37;102198.47;5073353;28;20031;-71
2022/07/15 01:18:01;;;;;;;11.25;3.28;;;;;;;12.30;87.68;102194.19;5071174;28;20411;-71
2022/07/15 01:20:28;;;;;;;8.05;3.40;;;;;;;12.30;87.81;102194.19;5057733;28;20029;-71
2022/07/15 01:22:54;;;;;;;6.68;3.40;;;;;;;12.31;87.43;102198.53;5056738;28;20032;-71
2022/07/15 01:25:19;;;;;;;8.30;3.17;;;;;;;12.32;87.79;102197.63;5073063;28;20028;-71
2022/07/15 01:27:45;;;;;;;14.52;3.55;;;;;;;12.26;88.38;102199.44;5071736;28;20022;-71
2022/07/15 01:30:11;;;;;;;6.57;3.45;;;;;;;12.25;88.46;102208.19;5071724;28;20035;-71
2022/07/15 01:32:37;;;;;;;13.70;4.00;;;;;;;12.18;88.37;102194.28;5072408;28;20058;-71
2022/07/15 01:35:02;;;;;;;10.60;3.47;;;;;;;12.26;88.60;102209.91;5072900;28;20028;-71
2022/07/15 01:37:28;;;;;;;9.43;3.92;;;;;;;12.23;88.75;102215.16;5071945;28;20021;-71
2022/07/15 01:39:53;;;;;;;11.82;3.40;;;;;;;12.18;88.75;102213.44;5069750;28;20052;-71
2022/07/15 01:42:18;;;;;;;8.75;3.47;;;;;;;12.21;88.67;102214.31;5072621;28;20032;-71
2022/07/15 01:44:43;;;;;;;9.30;3.65;;;;;;;12.11;89.10;102218.75;5072681;28;20025;-71
2022/07/15 01:47:09;;;;;;;12.60;3.75;;;;;;;12.10;89.42;102222.25;5070756;28;20469;-70
2022/07/15 01:49:34;;;;;;;10.80;3.78;;;;;;;12.07;89.37;102217.91;5070926;28;20116;-71
2022/07/15 01:52:01;;;;;;;8.85;4.22;;;;;;;12.07;89.75;102217.91;5072506;28;20052;-71
2022/07/15 01:54:28;;;;;;;8.43;3.40;;;;;;;12.03;89.89;102225.78;5072172;28;20045;-70
2022/07/15 01:56:54;;;;;;;10.63;3.70;;;;;;;11.99;89.95;102213.59;5069982;28;20430;-70
2022/07/15 01:59:24;;;;;;;15.93;3.58;;;;;;;11.93;90.16;102233.69;5071132;28;20029;-71
2022/07/15 02:01:52;;;;;;;7.15;3.63;;;;;;;11.92;90.35;102225.84;5064983;28;20027;-71
2022/07/15 02:04:18;;;;;;;11.35;3.92;;;;;;;11.93;90.11;102225.84;5060877;28;20028;-71
2022/07/15 02:06:45;;;;;;;10.02;3.75;;;;;;;11.94;90.54;102226.72;5072280;28;20032;-71
2022/07/15 02:09:11;;;;;;;9.20;3.85;;;;;;;11.93;90.61;102224.97;5071860;28;20024;-70
2022/07/15 02:11:36;;;;;;;10.43;3.70;;;;;;;11.91;90.50;102222.38;5071245;28;20116;-71
2022/07/15 02:14:02;;;;;;;11.30;4.60;;;;;;;11.88;90.47;102222.41;5071141;28;20101;-70
2022/07/15 02:16:31;;;;;;;7.22;3.67;;;;;;;11.89;90.65;102231.09;5068486;28;20123;-71
2022/07/15 02:18:57;;;;;;;7.97;3.90;;;;;;;11.84;90.73;102225.91;5068098;28;20055;-70
2022/07/15 02:21:23;;;;;;;8.95;3.58;;;;;;;11.81;90.50;102211.97;5066057;28;20053;-70
2022/07/15 02:23:49;;;;;;;7.93;3.80;;;;;;;11.79;90.66;102214.59;5061812;28;20024;-70
2022/07/15 02:26:15;;;;;;;10.30;3.70;;;;;;;11.75;90.85;102220.72;5072405;28;20039;-71
2022/07/15 02:28:41;;;;;;;10.55;4.15;;;;;;;11.70;91.69;102217.25;5061555;28;20029;-71
2022/07/15 02:31:06;;;;;;;11.57;4.30;;;;;;;11.68;91.41;102213.78;5068670;28;20153;-71
2022/07/15 02:33:32;;;;;;;8.27;4.10;;;;;;;11.65;91.60;102214.69;5071322;28;20036;-70
2022/07/15 02:35:57;;;;;;;8.55;3.97;;;;;;;11.68;91.51;102212.06;5071259;28;20036;-71
2022/07/15 02:38:23;;;;;;;11.05;4.13;;;;;;;11.62;91.91;102216.44;5071079;28;20106;-71
2022/07/15 02:40:48;;;;;;;13.48;4.68;;;;;;;11.61;91.81;102214.72;5070528;28;20024;-70
2022/07/15 02:43:14;;;;;;;7.43;3.58;;;;;;;11.62;92.06;102217.31;5071325;28;20021;-70
2022/07/15 02:45:40;;;;;;;11.70;4.30;;;;;;;11.57;91.98;102221.66;5071799;28;20028;-71
2022/07/15 02:48:07;;;;;;;11.55;4.28;;;;;;;11.52;92.43;102215.63;5070461;28;20465;-71
2022/07/15 02:50:32;;;;;;;9.85;4.93;;;;;;;11.49;92.73;102226.94;5063612;28;20435;-71
2022/07/15 02:52:58;;;;;;;11.23;4.15;;;;;;;11.47;93.21;102231.31;5069588;28;20110;-71
2022/07/15 02:55:23;;;;;;;10.45;4.18;;;;;;;11.43;92.99;102224.38;5071773;28;20132;-71
2022/07/15 02:57:48;;;;;;;9.02;4.28;;;;;;;11.39;93.04;102227.88;5061523;28;20108;-71
2022/07/15 03:00:17;;;;;;;9.35;4.30;;;;;;;11.37;93.24;102227.00;5067303;28;20024;-71
2022/07/15 03:02:43;;;;;;;9.73;4.43;;;;;;;11.31;93.12;102239.22;5071612;28;20112;-71
2022/07/15 03:05:09;;;;;;;9.50;3.50;;;;;;;11.29;93.56;102246.22;5071271;28;20103;-71
2022/07/15 03:07:34;;;;;;;10.27;3.97;;;;;;;11.22;93.40;102259.28;5070314;28;20024;-71
2022/07/15 03:10:00;;;;;;;10.50;4.55;;;;;;;11.18;93.49;102251.44;5071728;28;20029;-70
2022/07/15 03:12:25;;;;;;;8.25;3.40;;;;;;;11.14;93.62;102252.34;5069997;28;20078;-71
2022/07/15 03:14:50;;;;;;;9.23;4.13;;;;;;;11.14;93.73;102249.72;5071216;28;20024;-71
2022/07/15 03:17:16;;;;;;;12.48;4.15;;;;;;;11.12;93.87;102252.34;5069535;28;20727;-71
2022/07/15 03:19:41;;;;;;;8.20;4.10;;;;;;;11.11;93.61;102252.34;5070681;28;20051;-71
2022/07/15 03:22:07;;;;;;;10.68;4.05;;;;;;;11.09;93.95;102254.13;5060913;28;20013;-71
2022/07/15 03:24:32;;;;;;;10.98;4.00;;;;;;;11.05;93.77;102253.22;5067867;28;20423;-71
2022/07/15 03:26:58;;;;;;;10.23;3.85;;;;;;;11.05;93.89;102255.84;5070803;28;20025;-71
2022/07/15 03:29:24;;;;;;;6.82;3.97;;;;;;;11.05;93.62;102257.59;5072707;28;20028;-71
2022/07/15 03:31:50;;;;;;;9.60;3.85;;;;;;;11.00;93.34;102255.84;5075082;28;20538;-71
2022/07/15 03:34:15;;;;;;;7.55;3.92;;;;;;;11.00;93.60;102265.44;5075174;28;20056;-70
2022/07/15 03:36:41;;;;;;;7.95;3.78;;;;;;;10.98;93.83;102262.81;5073385;28;20036;-72
2022/07/15 03:39:07;;;;;;;6.38;3.90;;;;;;;11.01;93.84;102268.03;5072807;28;20085;-71
2022/07/15 03:41:33;;;;;;;8.00;3.60;;;;;;;11.01;93.98;102270.63;5075097;28;20506;-71
2022/07/15 03:44:00;;;;;;;9.73;4.45;;;;;;;11.02;94.07;102269.78;5075178;28;20035;-71
2022/07/15 03:46:25;;;;;;;9.32;4.40;;;;;;;11.09;94.28;102280.22;5074391;28;20021;-71
2022/07/15 03:48:51;;;;;;;10.45;4.00;;;;;;;11.11;94.00;102275.84;5064506;28;20025;-71
2022/07/15 03:51:16;;;;;;;10.18;3.95;;;;;;;11.18;93.99;102285.38;5067955;28;20416;-71
2022/07/15 03:53:41;;;;;;;7.63;3.92;;;;;;;11.20;94.21;102288.88;5072145;28;20048;-71
2022/07/15 03:56:07;;;;;;;14.32;4.15;;;;;;;11.21;94.35;102290.59;5075399;28;20103;-70
2022/07/15 03:58:32;;;;;;;7.47;3.92;;;;;;;11.23;94.85;102286.25;5072142;28;20025;-71
2022/07/15 04:00:58;;;;;;;10.57;4.30;;;;;;;11.27;94.66;102285.34;5074130;28;20487;-71
2022/07/15 04:03:23;;;;;;;12.65;3.92;;;;;;;11.34;94.90;102288.81;5074912;28;20031;-70
2022/07/15 04:05:48;;;;;;;11.52;3.80;;;;;;;11.37;94.65;102286.19;5074616;28;20025;-71
2022/07/15 04:08:13;;;;;;;10.18;4.03;;;;;;;11.41;94.66;102291.41;5067572;28;20063;-71
2022/07/15 04:10:39;;;;;;;7.68;4.30;;;;;;;11.45;94.35;102290.53;5071519;28;20025;-71
2022/07/15 04:13:04;;;;;;;10.25;4.13;;;;;;;11.52;94.41;102291.38;5073945;28;20033;-70
2022/07/15 04:15:29;;;;;;;10.57;4.25;;;;;;;11.61;94.44;102293.09;5073884;28;20028;-71
2022/07/15 04:17:56;;;;;;;7.85;4.35;;;;;;;11.67;93.97;102293.03;5071857;28;20031;-71
2022/07/15 04:20:22;;;;;;;10.52;3.88;;;;;;;11.76;93.80;102284.28;5074945;28;20455;-71
2022/07/15 04:22:48;;;;;;;8.75;4.45;;;;;;;11.88;93.54;102287.72;5058171;28;20014;-70
2022/07/15 04:25:16;;;;;;;10.75;3.97;;;;;;;12.04;93.54;102295.47;5074808;28;20396;-71
2022/07/15 04:27:43;;;;;;;9.48;4.10;;;;;;;12.13;92.86;102288.44;5074325;28;20103;-70
2022/07/15 04:30:10;;;;;;;9.80;4.05;;;;;;;12.20;92.73;102291.88;5060525;28;20024;-71
2022/07/15 04:32:35;;;;;;;6.68;3.65;;;;;;;12.29;92.43;102289.19;5073438;28;20071;-71
2022/07/15 04:35:01;;;;;;;7.70;4.05;;;;;;;12.36;92.15;102293.50;5074157;28;20052;-70
2022/07/15 04:37:27;;;;;;;11.65;4.10;;;;;;;12.41;92.25;102283.00;5073764;28;20032;-71
2022/07/15 04:39:53;;;;;;;9.32;4.20;;;;;;;12.51;92.38;102287.28;5071062;28;20028;-71
2022/07/15 04:42:18;;;;;;;11.63;4.13;;;;;;;12.58;91.65;102293.31;5064640;28;20029;-70
2022/07/15 04:44:43;;;;;;;9.73;4.28;;;;;;;12.69;91.97;102285.38;5066065;28;20032;-71
2022/07/15 04:47:09;;;;;;;9.05;4.93;;;;;;;12.73;91.04;102293.19;5073722;28;20020;-71
2022/07/15 04:52:18;;;;;;;10.05;4.43;;;;;;;12.94;89.62;102292.09;5061170;28;20101;-70
2022/07/15 04:54:44;;;;;;;9.63;4.40;;;;;;;12.96;90.01;102299.97;5073394;28;20488;-70
2022/07/15 04:57:11;;;;;;;9.77;4.40;;;;;;;12.92;89.50;102298.25;5073207;28;20032;-70
2022/07/15 04:59:37;;;;;;;10.35;4.28;;;;;;;12.81;90.73;102296.59;5070891;28;20499;-71
2022/07/15 05:02:02;;;;;;;11.38;4.30;;;;;;;12.70;90.82;102298.44;5071226;28;20060;-70
2022/07/15 05:04:28;;;;;;;8.38;4.80;;;;;;;12.63;91.02;102304.63;5073205;28;20464;-70
2022/07/15 05:06:53;;;;;;;10.43;4.72;;;;;;;12.55;91.57;102295.97;5073209;28;20040;-70
2022/07/15 05:09:18;;;;;;;9.65;4.80;;;;;;;12.49;91.33;102299.50;5073260;28;20055;-70
2022/07/15 05:11:43;;;;;;;8.52;4.55;;;;;;;12.47;91.94;102310.88;5070771;28;20357;-71
2022/07/15 05:14:10;;;;;;;13.57;4.78;;;;;;;12.45;92.37;102307.38;5073576;28;20021;-71
2022/07/15 05:16:35;;;;;;;10.57;4.68;;;;;;;12.45;92.87;102296.91;5073620;28;20033;-71
2022/07/15 05:19:00;;;;;;;12.02;4.63;;;;;;;12.46;92.60;102304.78;5072623;28;20024;-71
2022/07/15 05:21:25;;;;;;;12.00;4.22;;;;;;;12.48;92.56;102312.59;5067626;28;20045;-71
2022/07/15 05:23:51;;;;;;;10.48;3.92;;;;;;;12.48;92.69;102297.75;5072280;28;20025;-71
2022/07/15 05:26:18;;;;;;;13.27;4.88;;;;;;;12.50;92.69;102300.38;5072635;28;20028;-71
2022/07/15 05:28:43;;;;;;;12.32;4.68;;;;;;;12.60;93.17;102307.25;5073115;28;20020;-71
2022/07/15 05:31:09;;;;;;;10.13;4.35;;;;;;;12.69;93.32;102306.28;5072292;28;20035;-71
2022/07/15 05:33:34;;;;;;;12.93;4.20;;;;;;;12.78;92.32;102299.22;5071337;28;20056;-71
2022/07/15 05:35:59;;;;;;;14.30;4.88;;;;;;;12.87;91.93;102295.66;5073177;28;20025;-71
2022/07/15 05:38:24;;;;;;;12.32;5.13;;;;;;;13.00;91.88;102306.88;5070879;28;20392;-71
2022/07/15 05:40:50;;;;;;;10.13;4.70;;;;;;;13.10;90.41;102303.28;5071128;28;20028;-71
2022/07/15 05:43:15;;;;;;;14.07;4.45;;;;;;;13.16;90.85;102300.59;5071971;28;20036;-71
2022/07/15 05:45:41;;;;;;;12.85;4.25;;;;;;;13.23;89.84;102299.66;5072040;28;20060;-71
2022/07/15 05:48:06;;;;;;;8.52;4.93;;;;;;;13.33;87.92;102301.31;5065311;28;20040;-71
2022/07/15 05:50:31;;;;;;;11.63;4.47;;;;;;;13.43;89.12;102309.06;5072958;28;20035;-71
2022/07/15 05:52:57;;;;;;;9.00;4.10;;;;;;;13.48;88.31;102302.03;5058201;28;20032;-70
2022/07/15 05:55:23;;;;;;;8.48;3.58;;;;;;;13.50;87.09;102290.63;5058988;28;20055;-71
2022/07/15 05:57:48;;;;;;;9.07;4.07;;;;;;;13.62;88.72;102301.84;5072130;28;20028;-71
2022/07/15 06:00:14;;;;;;;9.15;3.58;;;;;;;13.70;87.92;102299.97;5071115;28;20017;-71
2022/07/15 06:02:40;;;;;;;10.68;3.65;;;;;;;13.75;88.34;102290.31;5070045;28;20036;-71
2022/07/15 06:05:06;;;;;;;8.70;4.03;;;;;;;13.80;84.75;102291.13;5071338;28;20111;-71
2022/07/15 06:07:33;;;;;;;9.30;3.60;;;;;;;13.84;84.85;102295.44;5068689;28;20039;-71
2022/07/15 06:09:58;;;;;;;11.10;3.92;;;;;;;13.95;86.59;102293.50;5072302;28;20445;-71
2022/07/15 06:12:23;;;;;;;9.02;3.20;;;;;;;14.02;85.82;102296.91;5069597;28;20103;-71
2022/07/15 06:14:49;;;;;;;10.75;3.45;;;;;;;14.08;84.09;102296.81;5067770;28;20130;-71
2022/07/15 06:17:14;;;;;;;11.23;3.13;;;;;;;14.16;83.80;102291.44;5072352;28;20104;-71
2022/07/15 06:19:40;;;;;;;5.80;3.53;;;;;;;14.23;83.44;102296.59;5072196;28;20056;-71
2022/07/15 06:22:06;;;;;;;5.38;3.10;;;;;;;14.31;83.64;102298.22;5059420;28;20029;-71
2022/07/15 06:24:31;;;;;;;4.25;2.22;;;;;;;14.36;79.25;102294.66;5067102;28;20020;-71
2022/07/15 06:26:56;;;;;;;9.43;2.55;;;;;;;14.38;79.24;102294.63;5071769;28;20032;-71
2022/07/15 06:29:22;;;;;;;6.68;2.50;;;;;;;14.49;79.03;102293.56;5071457;28;20051;-71
2022/07/15 06:31:48;;;;;;;9.30;2.55;;;;;;;14.55;78.25;102292.63;5069879;28;20119;-71
2022/07/15 06:34:13;;;;;;;8.35;2.88;;;;;;;14.60;78.66;102295.16;5071293;28;20074;-71
2022/07/15 06:36:38;;;;;;;9.65;2.30;;;;;;;14.65;78.06;102299.44;5071133;28;20025;-71
2022/07/15 06:39:04;;;;;;;5.80;2.30;;;;;;;14.68;77.06;102299.41;5071949;28;20594;-71
2022/07/15 06:41:31;;;;;;;6.65;1.60;;;;;;;14.78;76.59;102299.22;5070754;28;20024;-71
2022/07/15 06:43:56;;;;;;;6.30;1.90;;;;;;;14.80;76.47;102285.16;5069870;28;20028;-71
2022/07/15 06:46:22;;;;;;;5.90;1.83;;;;;;;14.90;77.24;102299.00;5072090;28;20027;-71
2022/07/15 06:48:47;;;;;;;8.60;1.90;;;;;;;14.90;76.63;102293.75;5071586;28;20040;-71
2022/07/15 06:51:12;;;;;;;7.70;1.63;;;;;;;14.95;76.32;102289.28;5069099;28;20025;-71
2022/07/15 06:53:37;;;;;;;6.25;1.85;;;;;;;15.03;74.31;102292.63;5069570;28;20039;-71
2022/07/15 06:56:03;;;;;;;7.07;1.40;;;;;;;15.08;72.78;102301.28;5070846;28;20043;-71
2022/07/15 06:58:28;;;;;;;2.80;1.25;;;;;;;15.10;73.50;102296.84;5070144;28;20024;-71
2022/07/15 07:00:54;;;;;;;6.90;2.15;;;;;;;15.12;72.01;102289.81;5070957;28;20033;-71
2022/07/15 07:03:19;;;;;;;5.70;1.70;;;;;;;15.13;73.97;102281.03;5063257;28;20111;-71
2022/07/15 07:05:44;;;;;;;6.75;2.25;;;;;;;15.26;72.93;102289.53;5058249;28;20089;-71
2022/07/15 07:08:10;;;;;;;6.35;1.33;;;;;;;15.33;73.92;102299.03;5072152;28;20426;-71
2022/07/15 07:10:35;;;;;;;10.15;1.73;;;;;;;15.41;73.37;102298.91;5072932;28;20028;-71
2022/07/15 07:13:00;;;;;;;4.72;1.30;;;;;;;15.46;69.76;102297.88;5070947;28;20037;-71
2022/07/15 07:15:26;;;;;;;6.80;1.17;;;;;;;15.50;71.57;102296.09;5070307;28;20076;-74
2022/07/15 07:17:51;;;;;;;7.63;1.45;;;;;;;15.57;70.11;102299.44;5070166;28;20020;-73
2022/07/15 07:20:17;;;;;;;3.85;1.20;;;;;;;15.69;69.38;102301.81;5071326;28;20017;-73
2022/07/15 07:22:42;;;;;;;3.03;1.20;;;;;;;15.73;69.55;102308.78;5055505;28;20107;-73
2022/07/15 07:25:08;;;;;;;8.18;1.25;;;;;;;15.80;68.78;102305.09;5070004;28;20452;-73
2022/07/15 07:27:34;;;;;;;7.25;1.25;;;;;;;15.86;66.70;102304.13;5063969;28;20496;-73
2022/07/15 07:30:01;;;;;;;4.88;1.27;;;;;;;15.91;68.53;102303.09;5065979;28;20021;-73
2022/07/15 07:32:27;;;;;;;5.90;1.27;;;;;;;15.98;67.43;102309.06;5068931;28;20052;-73
2022/07/15 07:34:52;;;;;;;4.60;1.20;;;;;;;16.01;65.09;102313.41;5069921;28;20441;-73
2022/07/15 07:37:17;;;;;;;5.40;1.42;;;;;;;16.03;63.80;102308.97;5071530;28;20036;-73
2022/07/15 07:39:43;;;;;;;3.72;1.10;;;;;;;16.01;64.13;102314.25;5061897;28;20116;-73
2022/07/15 07:42:08;;;;;;;7.05;1.25;;;;;;;15.92;63.41;102317.09;5071718;28;20021;-73
2022/07/15 07:44:34;;;;;;;3.53;1.17;;;;;;;15.94;63.62;102320.56;5071503;28;20026;-73
2022/07/15 07:46:59;;;;;;;3.33;1.02;;;;;;;16.05;62.76;102321.19;5067762;28;20040;-73
2022/07/15 07:49:24;;;;;;;4.78;1.27;;;;;;;16.11;64.57;102320.19;5069580;28;20032;-74
2022/07/15 07:51:49;;;;;;;4.43;1.33;;;;;;;16.17;65.73;102306.03;5070781;28;20089;-73
2022/07/15 07:54:15;;;;;;;8.15;1.63;;;;;;;16.32;65.31;102317.06;5070499;28;20045;-74
2022/07/15 07:56:40;;;;;;;3.22;0.82;;;;;;;16.41;62.80;102313.31;5070990;28;20121;-74
2022/07/15 07:59:05;;;;;;;3.65;1.05;;;;;;;16.50;62.06;102312.25;5069361;28;20043;-73
2022/07/15 08:01:31;;;;;;;3.08;1.00;;;;;;;16.59;62.85;102318.13;5067053;28;20047;-74
2022/07/15 08:03:56;;;;;;;4.20;0.93;;;;;;;16.70;60.62;102307.31;5069467;28;20433;-73
2022/07/15 08:06:22;;;;;;;4.00;0.90;;;;;;;16.72;58.95;102309.94;5070682;28;20052;-73
2022/07/15 08:08:48;;;;;;;2.75;0.90;;;;;;;16.82;61.89;102303.56;5062957;28;20124;-73
2022/07/15 08:11:13;;;;;;;4.82;1.00;;;;;;;16.93;59.89;102312.03;5066531;28;20103;-73
2022/07/15 08:13:39;;;;;;;4.07;1.23;;;;;;;16.96;60.65;102317.22;5070561;28;20024;-73
2022/07/15 08:16:06;;;;;;;8.38;1.40;;;;;;;17.06;60.51;102308.16;5074511;28;20448;-74
2022/07/15 08:18:31;;;;;;;2.03;0.82;;;;;;;17.11;59.61;102307.19;5072035;28;20036;-74
2022/07/15 08:20:57;;;;;;;4.90;1.13;;;;;;;17.22;60.89;102305.09;5064557;28;20096;-74
2022/07/15 08:23:22;;;;;;;6.07;1.30;;;;;;;17.36;60.58;102317.88;5073493;28;20081;-73
2022/07/15 08:25:49;;;;;;;3.90;1.00;;;;;;;17.42;58.26;102320.34;5083725;28;20051;-73
2022/07/15 08:28:15;;;;;;;5.03;0.90;;;;;;;17.52;58.30;102316.53;5074530;28;20032;-74
2022/07/15 08:30:40;;;;;;;6.53;1.20;;;;;;;17.63;60.58;102319.75;5074499;28;20027;-74
2022/07/15 08:33:06;;;;;;;3.35;1.20;;;;;;;17.71;57.70;102330.06;5074409;28;20107;-74
2022/07/15 08:35:31;;;;;;;3.97;1.10;;;;;;;17.72;55.34;102324.75;5073155;28;20037;-74
2022/07/15 08:37:57;;;;;;;3.38;1.05;;;;;;;17.74;56.22;102327.31;5064714;28;20468;-74
2022/07/15 08:40:23;;;;;;;4.30;0.93;;;;;;;17.79;57.39;102330.72;5062118;28;20036;-74
2022/07/15 08:42:49;;;;;;;2.72;1.10;;;;;;;17.82;56.29;102313.94;5068518;28;20033;-74
2022/07/15 08:45:16;;;;;;;3.65;1.00;;;;;;;17.89;57.37;102304.94;5068148;28;20077;-74
2022/07/15 08:47:46;;;;;;;5.38;1.10;;;;;;;18.01;55.63;102307.16;5074142;28;20028;-74
2022/07/15 08:50:14;;;;;;;4.20;0.90;;;;;;;18.10;57.20;102304.25;5073329;28;20111;-74
2022/07/15 08:52:40;;;;;;;3.15;0.80;;;;;;;18.23;54.82;102299.44;5074073;28;20035;-74
2022/07/15 08:55:07;;;;;;;3.72;1.10;;;;;;;18.33;53.49;102308.78;5073342;28;20044;-74
2022/07/15 08:57:33;;;;;;;2.17;1.00;;;;;;;18.44;54.66;102297.88;5071496;28;20031;-74
2022/07/15 08:59:58;;;;;;;3.42;0.88;;;;;;;18.46;53.85;102302.19;5082771;28;20110;-74
2022/07/15 09:02:23;;;;;;;3.78;0.80;;;;;;;18.59;56.70;102302.63;5061324;28;20036;-74
2022/07/15 09:05:16;;;;;;;5.05;0.82;;;;;;;18.70;54.60;102304.91;5072808;28;20031;-74
2022/07/15 09:08:03;;;;;;;6.18;1.10;;;;;;;18.74;54.75;102305.69;5055415;28;20032;-74
2022/07/15 09:10:43;;;;;;;4.32;1.00;;;;;;;18.83;54.23;102303.59;5069324;28;20372;-74
2022/07/15 09:13:11;;;;;;;6.68;1.45;;;;;;;18.89;52.87;102281.38;5074023;28;20024;-74
2022/07/15 09:15:40;;;;;;;4.20;1.08;;;;;;;18.92;52.65;102287.44;5073147;28;20499;-74
2022/07/15 09:18:12;;;;;;;4.75;0.70;;;;;;;18.98;51.40;102285.50;5071932;28;20069;-74
2022/07/15 09:20:38;;;;;;;4.15;1.05;;;;;;;19.13;55.47;102292.88;5069637;28;20035;-73
2022/07/15 09:23:04;;;;;;;2.35;0.93;;;;;;;19.35;53.52;102293.78;5059257;28;20040;-74
2022/07/15 09:25:34;;;;;;;2.58;0.82;;;;;;;19.61;53.50;102294.59;5070288;28;20059;-74
2022/07/15 09:28:03;;;;;;;2.70;1.00;;;;;;;19.74;52.21;102292.38;5071288;28;20110;-74
2022/07/15 09:33:34;;;;;;;2.95;0.90;;;;;;;19.82;50.91;102293.81;5071117;28;20119;-74
2022/07/15 09:36:08;;;;;;;5.05;0.82;;;;;;;19.80;50.21;102289.50;5064003;28;20028;-74
2022/07/15 09:38:40;;;;;;;3.28;0.88;;;;;;;19.85;46.95;102298.13;5057849;28;20029;-74
2022/07/15 09:41:07;;;;;;;3.33;0.90;;;;;;;19.87;46.02;102288.31;5073183;28;20032;-75
2022/07/15 09:43:42;;;;;;;3.00;0.88;;;;;;;19.93;48.06;102289.88;5070339;28;20024;-74
2022/07/15 09:46:08;;;;;;;2.63;0.90;;;;;;;19.95;47.96;102291.53;5072303;28;20380;-74
2022/07/15 09:48:39;;;;;;;4.75;0.90;;;;;;;20.03;47.47;102293.88;5072696;28;20024;-74
2022/07/15 09:51:04;;;;;;;4.18;1.30;;;;;;;19.92;46.39;102282.88;5068757;28;20021;-74
2022/07/15 09:53:32;;;;;;;4.03;0.90;;;;;;;19.80;48.03;102279.75;5062052;28;20031;-74
2022/07/15 09:55:58;;;;;;;2.53;0.70;;;;;;;19.85;48.05;102288.41;5072638;28;20031;-74
2022/07/15 09:58:25;;;;;;;4.20;0.90;;;;;;;20.06;46.72;102291.09;5072883;28;20024;-74
2022/07/15 10:00:52;;;;;;;4.28;1.00;;;;;;;20.28;46.17;102286.66;5071560;28;20483;-75
2022/07/15 10:03:19;;;;;;;4.38;0.95;;;;;;;20.44;48.82;102278.94;5072774;28;20025;-75
2022/07/15 10:05:46;;;;;;;3.25;1.10;;;;;;;20.56;46.28;102281.06;5069086;28;20039;-75
2022/07/15 10:08:14;;;;;;;2.88;1.10;;;;;;;20.73;45.86;102279.50;5060091;28;20024;-74
2022/07/15 10:10:39;;;;;;;3.63;0.80;;;;;;;20.71;46.28;102278.72;5076000;28;20012;-74
2022/07/15 10:13:16;;;;;;;2.08;0.82;;;;;;;20.77;46.60;102273.16;5068075;28;20078;-75
2022/07/15 10:16:06;;;;;;;3.33;0.93;;;;;;;20.78;46.88;102273.06;5070941;28;20606;-74
2022/07/15 10:18:55;;;;;;;9.32;1.00;;;;;;;20.99;47.67;102273.03;5066449;28;20108;-75
2022/07/15 10:21:38;;;;;;;4.88;1.17;;;;;;;20.88;47.08;102267.38;5059987;28;20123;-74
2022/07/15 10:24:25;;;;;;;2.75;0.80;;;;;;;20.80;46.64;102257.13;5064948;28;20025;-73
2022/07/15 10:26:55;;;;;;;2.42;0.80;;;;;;;21.06;44.51;102261.25;5069623;28;20116;-74
2022/07/15 10:29:20;;;;;;;2.65;0.80;;;;;;;21.28;44.89;102269.94;5069543;28;20036;-74
2022/07/15 10:31:56;;;;;;;2.78;0.80;;;;;;;21.62;44.21;102249.84;5060959;28;20383;-74
2022/07/15 10:34:22;;;;;;;1.17;0.57;;;;;;;22.05;43.61;102254.88;5070766;28;20483;-73
2022/07/15 10:36:49;;;;;;;1.55;1.02;;;;;;;22.56;42.58;102258.50;5069992;28;20020;-74
2022/07/15 10:39:17;;;;;;;4.78;0.95;;;;;;;22.67;42.01;102257.00;5072191;28;20033;-73
2022/07/15 10:41:58;;;;;;;2.70;1.10;;;;;;;22.39;42.43;102248.72;5071187;28;20024;-74
2022/07/15 10:44:28;;;;;;;4.05;1.00;;;;;;;21.71;44.35;102251.16;5071314;28;20043;-73
2022/07/15 10:47:14;;;;;;;3.90;0.90;;;;;;;21.86;45.28;102250.44;5064538;28;20469;-73
2022/07/15 10:49:41;;;;;;;1.45;0.70;;;;;;;22.16;41.32;102247.25;5052401;28;20045;-75
2022/07/15 10:52:14;;;;;;;3.17;0.80;;;;;;;22.65;41.89;102250.06;5068408;28;20032;-74
2022/07/15 10:54:41;;;;;;;;;;;;;;;22.96;44.05;102232.53;5071326;28;20511;-75
2022/07/15 10:57:07;;;;;;;2.85;0.90;;;;;;;22.91;40.41;102233.56;5069880;28;20414;-75
2022/07/15 10:59:41;;;;;;;4.78;1.00;;;;;;;23.05;41.61;102232.91;5070858;28;20135;-76
2022/07/15 11:02:06;;;;;;;4.63;1.10;;;;;;;23.24;38.62;102234.53;5065416;28;20027;-75
2022/07/15 11:04:33;;;;;;;4.53;1.10;;;;;;;23.31;42.03;102227.94;5073781;28;20032;-74
2022/07/15 11:07:07;;;;;;;3.13;1.00;;;;;;;23.27;40.41;102229.91;5071604;28;20047;-75
2022/07/15 11:09:58;;;;;;;2.85;0.95;;;;;;;23.57;41.62;102222.00;5069674;28;20020;-75
2022/07/15 11:12:29;;;;;;;1.98;0.73;;;;;;;23.85;42.90;102225.81;5071555;28;20469;-75
2022/07/15 11:14:57;;;;;;;3.17;0.90;;;;;;;23.96;38.90;102226.03;5071455;28;20035;-76
2022/07/15 11:17:37;;;;;;;2.38;1.00;;;;;;;24.03;39.22;102218.53;5070617;28;20036;-76
2022/07/15 11:20:14;;;;;;;2.85;0.88;;;;;;;23.96;38.37;102215.38;5070701;28;20029;-75
2022/07/15 11:22:46;;;;;;;4.40;0.88;;;;;;;23.86;40.31;102221.31;5056927;28;20068;-75
2022/07/15 11:25:25;;;;;;;2.65;0.90;;;;;;;24.00;37.94;102208.94;5059808;28;20044;-76
2022/07/15 11:28:10;;;;;;;3.67;0.80;;;;;;;24.29;41.09;102220.50;5069007;28;20040;-75
2022/07/15 11:30:53;;;;;;;8.93;1.13;;;;;;;24.69;40.80;102204.81;5056685;28;20017;-76
2022/07/15 11:33:25;;;;;;;2.58;0.80;;;;;;;25.02;38.10;102211.69;5052734;28;20072;-75